createdAt,value
2022-10-23T00:01:46.617Z,11.41
2022-10-23T00:04:17.679Z,11.35
2022-10-23T00:06:46.944Z,11.32
2022-10-23T00:09:18.584Z,11.24
2022-10-23T00:11:47.914Z,11.24
2022-10-23T00:14:17.299Z,11.20
2022-10-23T00:16:46.004Z,11.17
2022-10-23T00:19:14.134Z,11.07
2022-10-23T00:21:42.326Z,11.03
2022-10-23T00:26:44.993Z,10.96
2022-10-23T00:29:13.225Z,10.93
2022-10-23T00:31:41.349Z,10.91
2022-10-23T00:34:11.062Z,10.87
2022-10-23T00:36:39.213Z,10.94
2022-10-23T00:39:07.444Z,11.00
2022-10-23T00:41:35.767Z,10.94
2022-10-23T00:44:11.144Z,10.86
2022-10-23T00:46:40.326Z,10.82
2022-10-23T00:49:09.619Z,10.73
2022-10-23T00:51:41.381Z,10.65
2022-10-23T00:54:23.302Z,10.57
2022-10-23T00:56:53.706Z,10.67
2022-10-23T00:59:23.349Z,10.69
2022-10-23T01:01:51.941Z,10.66
2022-10-23T01:04:21.235Z,10.72
2022-10-23T01:06:57.361Z,10.78
2022-10-23T01:09:32.245Z,10.76
2022-10-23T01:12:16.222Z,10.67
2022-10-23T01:14:54.723Z,10.65
2022-10-23T01:17:31.092Z,10.68
2022-10-23T01:20:12.471Z,10.68
2022-10-23T01:22:55.200Z,10.69
2022-10-23T01:25:34.456Z,10.77
2022-10-23T01:28:07.599Z,10.63
2022-10-23T01:33:22.358Z,10.65
2022-10-23T01:35:58.860Z,10.62
2022-10-23T01:38:29.709Z,10.67
2022-10-23T01:41:04.982Z,10.81
2022-10-23T01:43:39.883Z,10.66
2022-10-23T01:46:11.438Z,10.67
2022-10-23T01:48:45.245Z,10.65
2022-10-23T01:51:15.268Z,10.61
2022-10-23T01:53:47.258Z,10.52
2022-10-23T01:56:21.299Z,10.50
2022-10-23T01:58:54.520Z,10.43
2022-10-23T02:01:27.324Z,10.40
2022-10-23T02:06:30.788Z,10.39
2022-10-23T02:08:59.164Z,10.40
2022-10-23T02:11:28.440Z,10.36
2022-10-23T02:14:04.840Z,10.41
2022-10-23T02:16:40.494Z,10.25
2022-10-23T02:19:18.858Z,10.29
2022-10-23T02:21:54.727Z,10.20
2022-10-23T02:24:30.232Z,10.23
2022-10-23T02:27:01.848Z,10.23
2022-10-23T02:29:35.518Z,10.23
2022-10-23T02:32:03.732Z,10.27
2022-10-23T02:34:32.356Z,10.20
2022-10-23T02:37:00.885Z,10.15
2022-10-23T02:39:30.153Z,10.21
2022-10-23T02:42:09.739Z,10.16
2022-10-23T02:44:49.773Z,10.18
2022-10-23T02:47:31.266Z,10.06
2022-10-23T02:50:06.660Z,9.95
2022-10-23T02:52:43.573Z,10.01
2022-10-23T02:55:23.230Z,10.04
2022-10-23T02:57:56.301Z,10.04
2022-10-23T03:00:26.284Z,10.05
2022-10-23T03:02:58.943Z,10.12
2022-10-23T03:05:33.669Z,10.10
2022-10-23T03:08:04.573Z,10.20
2022-10-23T03:10:32.919Z,10.29
2022-10-23T03:13:01.053Z,10.28
2022-10-23T03:15:35.348Z,10.38
2022-10-23T03:18:03.491Z,10.43
2022-10-23T03:20:32.017Z,10.36
2022-10-23T03:23:01.320Z,10.49
2022-10-23T03:25:29.511Z,10.49
2022-10-23T03:28:00.238Z,10.58
2022-10-23T03:30:28.453Z,10.67
2022-10-23T03:32:57.932Z,10.62
2022-10-23T03:35:26.100Z,10.60
2022-10-23T03:37:54.296Z,10.66
2022-10-23T03:40:24.769Z,10.65
2022-10-23T03:42:52.921Z,10.70
2022-10-23T03:45:21.361Z,10.65
2022-10-23T03:47:51.719Z,10.49
2022-10-23T03:50:21.596Z,10.47
2022-10-23T03:52:49.884Z,10.36
2022-10-23T03:55:18.336Z,10.32
2022-10-23T03:57:46.456Z,10.18
2022-10-23T04:00:14.967Z,10.24
2022-10-23T04:02:46.473Z,10.21
2022-10-23T04:05:15.015Z,10.31
2022-10-23T04:07:53.837Z,10.32
2022-10-23T04:10:21.977Z,10.10
2022-10-23T04:12:50.107Z,9.98
2022-10-23T04:15:18.565Z,10.08
2022-10-23T04:17:47.797Z,10.01
2022-10-23T04:20:16.278Z,9.95
2022-10-23T04:22:45.220Z,9.95
2022-10-23T04:25:16.569Z,9.95
2022-10-23T04:27:44.947Z,9.98
2022-10-23T04:30:14.054Z,9.89
2022-10-23T04:32:42.753Z,9.97
2022-10-23T04:35:11.285Z,9.84
2022-10-23T04:37:39.542Z,9.77
2022-10-23T04:40:10.032Z,9.65
2022-10-23T04:42:40.997Z,9.65
2022-10-23T04:45:10.682Z,9.62
2022-10-23T04:47:39.536Z,9.56
2022-10-23T04:50:08.477Z,9.52
2022-10-23T04:52:57.758Z,9.49
2022-10-23T04:55:50.233Z,9.45
2022-10-23T04:58:29.227Z,9.33
2022-10-23T05:00:59.627Z,9.35
2022-10-23T05:03:28.230Z,9.36
2022-10-23T05:05:57.690Z,9.27
2022-10-23T05:08:45.414Z,9.37
2022-10-23T05:11:32.429Z,9.23
2022-10-23T05:14:06.410Z,9.30
2022-10-23T05:16:38.957Z,9.27
2022-10-23T05:19:10.337Z,9.19
2022-10-23T05:21:41.504Z,9.15
2022-10-23T05:24:12.636Z,8.99
2022-10-23T05:26:40.856Z,8.98
2022-10-23T05:29:10.885Z,8.87
2022-10-23T05:31:40.045Z,8.84
2022-10-23T05:34:15.122Z,8.89
2022-10-23T05:36:46.189Z,8.89
2022-10-23T05:39:16.176Z,8.99
2022-10-23T05:41:44.685Z,8.95
2022-10-23T05:44:14.158Z,8.66
2022-10-23T05:47:08.311Z,8.66
2022-10-23T05:49:55.123Z,8.77
2022-10-23T05:52:35.183Z,8.69
2022-10-23T05:55:13.195Z,8.64
2022-10-23T05:57:51.917Z,8.49
2022-10-23T06:00:30.988Z,8.50
2022-10-23T06:03:19.025Z,8.61
2022-10-23T06:05:50.709Z,8.63
2022-10-23T06:08:24.412Z,8.62
2022-10-23T06:10:53.109Z,8.57
2022-10-23T06:13:21.366Z,8.64
2022-10-23T06:15:50.902Z,8.69
2022-10-23T06:18:21.857Z,8.82
2022-10-23T06:21:07.928Z,8.84
2022-10-23T06:23:38.347Z,8.62
2022-10-23T06:26:19.571Z,8.70
2022-10-23T06:28:56.886Z,8.85
2022-10-23T06:31:28.254Z,8.87
2022-10-23T06:33:59.472Z,8.89
2022-10-23T06:36:28.764Z,8.94
2022-10-23T06:39:14.677Z,9.03
2022-10-23T06:41:58.790Z,9.17
2022-10-23T06:44:45.811Z,9.29
2022-10-23T06:47:19.745Z,9.34
2022-10-23T06:50:11.747Z,9.55
2022-10-23T06:52:47.358Z,9.72
2022-10-23T06:55:18.672Z,9.85
2022-10-23T06:57:47.773Z,9.83
2022-10-23T07:00:16.267Z,10.05
2022-10-23T07:02:53.417Z,10.05
2022-10-23T07:05:21.688Z,10.09
2022-10-23T07:07:49.950Z,10.12
2022-10-23T07:10:25.346Z,10.30
2022-10-23T07:13:01.123Z,10.37
2022-10-23T07:15:41.665Z,10.52
2022-10-23T07:18:17.021Z,10.56
2022-10-23T07:21:11.201Z,10.65
2022-10-23T07:23:40.767Z,10.69
2022-10-23T07:26:11.210Z,10.76
2022-10-23T07:28:39.589Z,10.74
2022-10-23T07:31:08.209Z,10.85
2022-10-23T07:34:00.892Z,10.84
2022-10-23T07:36:29.745Z,10.90
2022-10-23T07:38:57.966Z,10.92
2022-10-23T07:41:26.581Z,10.98
2022-10-23T07:43:55.021Z,11.11
2022-10-23T07:46:23.881Z,11.20
2022-10-23T07:48:52.235Z,11.42
2022-10-23T07:51:21.849Z,11.43
2022-10-23T07:53:56.541Z,11.45
2022-10-23T07:56:53.433Z,11.56
2022-10-23T07:59:47.843Z,11.59
2022-10-23T08:02:24.717Z,11.61
2022-10-23T08:04:53.980Z,11.62
2022-10-23T08:07:37.705Z,11.70
2022-10-23T08:10:08.062Z,11.71
2022-10-23T08:12:38.478Z,11.80
2022-10-23T08:15:07.510Z,11.94
2022-10-23T08:17:47.800Z,12.03
2022-10-23T08:20:20.841Z,12.08
2022-10-23T08:22:53.369Z,12.25
2022-10-23T08:25:26.052Z,12.34
2022-10-23T08:27:55.065Z,12.41
2022-10-23T08:30:23.569Z,12.45
2022-10-23T08:32:51.809Z,12.52
2022-10-23T08:35:19.971Z,12.60
2022-10-23T08:37:51.853Z,12.82
2022-10-23T08:40:25.509Z,13.24
2022-10-23T08:43:37.184Z,12.96
2022-10-23T08:46:24.860Z,13.26
2022-10-23T08:49:37.765Z,13.44
2022-10-23T08:52:16.624Z,13.56
2022-10-23T08:54:58.202Z,13.64
2022-10-23T08:57:33.387Z,13.53
2022-10-23T09:00:04.620Z,13.73
2022-10-23T09:02:39.284Z,13.95
2022-10-23T09:05:15.305Z,14.08
2022-10-23T09:07:56.173Z,14.21
2022-10-23T09:10:38.841Z,14.22
2022-10-23T09:13:23.221Z,14.33
2022-10-23T09:15:58.569Z,14.56
2022-10-23T09:18:27.021Z,14.66
2022-10-23T09:20:55.156Z,14.71
2022-10-23T09:23:24.891Z,14.83
2022-10-23T09:25:57.061Z,14.92
2022-10-23T09:28:28.576Z,14.87
2022-10-23T09:31:07.861Z,15.06
2022-10-23T09:33:37.170Z,15.18
2022-10-23T09:36:08.548Z,15.34
2022-10-23T09:38:38.436Z,15.32
2022-10-23T09:41:14.862Z,15.44
2022-10-23T09:43:43.400Z,15.53
2022-10-23T09:46:11.976Z,15.40
2022-10-23T09:48:42.369Z,15.54
2022-10-23T09:51:19.921Z,15.43
2022-10-23T09:53:51.119Z,15.38
2022-10-23T09:56:28.945Z,15.66
2022-10-23T09:58:58.704Z,15.38
2022-10-23T10:01:28.882Z,15.58
2022-10-23T10:04:06.838Z,15.91
2022-10-23T10:06:35.812Z,15.92
2022-10-23T10:09:11.536Z,15.88
2022-10-23T10:11:47.082Z,15.91
2022-10-23T10:14:46.462Z,16.15
2022-10-23T10:17:24.732Z,16.10
2022-10-23T10:20:15.007Z,16.15
2022-10-23T10:22:53.855Z,16.24
2022-10-23T10:25:29.526Z,16.30
2022-10-23T10:28:20.407Z,16.50
2022-10-23T10:30:57.542Z,16.49
2022-10-23T10:33:33.465Z,16.80
2022-10-23T10:36:14.344Z,16.89
2022-10-23T10:38:50.068Z,17.00
2022-10-23T10:41:45.394Z,16.97
2022-10-23T10:44:43.580Z,17.13
2022-10-23T10:47:21.042Z,17.08
2022-10-23T10:50:03.974Z,16.98
2022-10-23T10:52:51.945Z,17.18
2022-10-23T10:55:26.474Z,17.26
2022-10-23T10:58:00.387Z,17.43
2022-10-23T11:00:32.137Z,17.37
2022-10-23T11:03:05.666Z,17.41
2022-10-23T11:05:38.489Z,17.19
2022-10-23T11:08:13.605Z,17.48
2022-10-23T11:10:46.354Z,17.57
2022-10-23T11:13:26.253Z,17.53
2022-10-23T11:16:00.601Z,17.75
2022-10-23T11:18:31.731Z,17.65
2022-10-23T11:21:09.996Z,17.72
2022-10-23T11:24:15.751Z,17.64
2022-10-23T11:27:02.151Z,17.68
2022-10-23T11:30:01.361Z,17.54
2022-10-23T11:32:50.714Z,17.62
2022-10-23T11:35:36.724Z,17.65
2022-10-23T11:38:16.077Z,17.80
2022-10-23T11:40:46.653Z,17.51
2022-10-23T11:43:14.947Z,17.57
2022-10-23T11:45:43.270Z,17.84
2022-10-23T11:48:24.633Z,17.65
2022-10-23T11:50:58.122Z,17.65
2022-10-23T11:53:39.693Z,17.78
2022-10-23T11:56:26.602Z,17.77
2022-10-23T11:58:56.823Z,17.72
2022-10-23T12:01:38.001Z,17.84
2022-10-23T12:04:20.637Z,17.91
2022-10-23T12:06:51.058Z,17.97
2022-10-23T12:09:26.526Z,17.87
2022-10-23T12:12:17.136Z,17.77
2022-10-23T12:14:47.304Z,17.83
2022-10-23T12:17:36.836Z,17.79
2022-10-23T12:20:24.801Z,17.81
2022-10-23T12:23:07.014Z,17.95
2022-10-23T12:25:44.698Z,17.84
2022-10-23T12:28:25.023Z,17.96
2022-10-23T12:31:03.473Z,18.04
2022-10-23T12:33:40.876Z,18.10
2022-10-23T12:36:44.708Z,18.11
2022-10-23T12:39:26.709Z,18.35
2022-10-23T12:41:55.063Z,18.09
2022-10-23T12:44:25.217Z,18.21
2022-10-23T12:46:58.448Z,18.40
2022-10-23T12:49:28.137Z,18.40
2022-10-23T12:52:00.009Z,18.43
2022-10-23T12:54:29.081Z,18.35
2022-10-23T12:56:57.404Z,18.27
2022-10-23T12:59:28.137Z,18.06
2022-10-23T13:01:56.619Z,18.26
2022-10-23T13:04:30.051Z,18.15
2022-10-23T13:07:01.753Z,17.98
2022-10-23T13:09:34.428Z,18.01
2022-10-23T13:12:22.353Z,18.02
2022-10-23T13:14:59.547Z,17.94
2022-10-23T13:17:40.709Z,17.86
2022-10-23T13:20:22.135Z,17.89
2022-10-23T13:23:00.586Z,17.94
2022-10-23T13:25:31.765Z,17.79
2022-10-23T13:28:13.077Z,17.85
2022-10-23T13:30:43.633Z,17.83
2022-10-23T13:33:16.278Z,17.73
2022-10-23T13:35:44.541Z,17.65
2022-10-23T13:38:14.857Z,17.82
2022-10-23T13:40:42.957Z,17.75
2022-10-23T13:43:18.941Z,17.61
2022-10-23T13:45:47.049Z,17.49
2022-10-23T13:48:16.138Z,17.35
2022-10-23T13:50:44.299Z,17.28
2022-10-23T13:53:14.286Z,17.30
2022-10-23T13:55:45.055Z,17.26
2022-10-23T13:58:13.201Z,17.25
2022-10-23T14:00:43.387Z,17.20
2022-10-23T14:03:11.953Z,17.20
2022-10-23T14:05:40.092Z,17.19
2022-10-23T14:08:08.273Z,17.23
2022-10-23T14:10:38.131Z,17.20
2022-10-23T14:13:06.321Z,17.19
2022-10-23T14:15:34.503Z,17.14
2022-10-23T14:18:07.254Z,17.06
2022-10-23T14:20:38.822Z,17.02
2022-10-23T14:23:06.953Z,16.90
2022-10-23T14:25:35.078Z,16.89
2022-10-23T14:28:04.729Z,16.88
2022-10-23T14:30:33.200Z,16.74
2022-10-23T14:33:01.330Z,16.67
2022-10-23T14:35:29.443Z,16.69
2022-10-23T14:37:58.537Z,16.70
2022-10-23T14:40:27.057Z,16.53
2022-10-23T14:42:55.155Z,16.43
2022-10-23T14:45:25.106Z,16.41
2022-10-23T14:47:53.223Z,16.34
2022-10-23T14:50:21.375Z,16.25
2022-10-23T14:52:49.605Z,16.18
2022-10-23T14:55:18.120Z,16.01
2022-10-23T14:57:46.537Z,15.91
2022-10-23T15:00:15.232Z,15.84
2022-10-23T15:02:44.947Z,15.76
2022-10-23T15:05:13.224Z,15.75
2022-10-23T15:07:41.451Z,15.68
2022-10-23T15:10:10.334Z,15.58
2022-10-23T15:12:39.307Z,15.55
2022-10-23T15:15:08.743Z,15.47
2022-10-23T15:17:39.019Z,15.43
2022-10-23T15:20:09.438Z,15.32
2022-10-23T15:22:37.555Z,15.24
2022-10-23T15:25:06.714Z,15.13
2022-10-23T15:27:34.884Z,15.08
2022-10-23T15:30:03.031Z,14.98
2022-10-23T15:32:31.163Z,14.98
2022-10-23T15:35:00.122Z,14.90
2022-10-23T15:37:29.880Z,14.82
2022-10-23T15:40:01.267Z,14.80
2022-10-23T15:42:30.997Z,14.70
2022-10-23T15:44:59.109Z,14.68
2022-10-23T15:47:27.253Z,14.66
2022-10-23T15:49:55.490Z,14.63
2022-10-23T15:52:23.634Z,14.52
2022-10-23T15:54:53.093Z,14.46
2022-10-23T15:57:21.219Z,14.35
2022-10-23T15:59:51.016Z,14.23
2022-10-23T16:02:19.249Z,14.21
2022-10-23T16:04:47.436Z,14.08
2022-10-23T16:07:15.581Z,14.05
2022-10-23T16:09:43.849Z,14.01
2022-10-23T16:12:13.354Z,13.86
2022-10-23T16:14:41.832Z,13.80
2022-10-23T16:17:10.031Z,13.76
2022-10-23T16:19:38.525Z,13.81
2022-10-23T16:22:07.020Z,13.82
2022-10-23T16:24:35.542Z,13.73
2022-10-23T16:27:03.772Z,13.80
2022-10-23T16:29:33.238Z,13.72
2022-10-23T16:32:01.377Z,13.67
2022-10-23T16:34:29.653Z,13.67
2022-10-23T16:36:57.767Z,13.65
2022-10-23T16:39:34.052Z,13.66
2022-10-23T16:42:20.787Z,13.61
2022-10-23T16:45:06.273Z,13.53
2022-10-23T16:47:34.826Z,13.63
2022-10-23T16:50:02.977Z,13.72
2022-10-23T16:52:31.610Z,13.93
2022-10-23T16:54:59.729Z,14.08
2022-10-23T16:57:28.213Z,14.12
2022-10-23T16:59:56.527Z,14.15
2022-10-23T17:02:26.167Z,14.14
2022-10-23T17:04:54.345Z,13.98
2022-10-23T17:07:24.102Z,13.89
2022-10-23T17:09:52.503Z,13.97
2022-10-23T17:12:20.657Z,13.84
2022-10-23T17:14:48.788Z,13.82
2022-10-23T17:17:16.930Z,13.97
2022-10-23T17:19:46.840Z,13.70
2022-10-23T17:22:15.685Z,13.78
2022-10-23T17:24:46.340Z,14.01
2022-10-23T17:27:17.057Z,14.06
2022-10-23T17:29:45.180Z,13.99
2022-10-23T17:32:13.512Z,13.96
2022-10-23T17:34:41.648Z,13.86
2022-10-23T17:37:13.232Z,13.83
2022-10-23T17:39:42.326Z,13.93
2022-10-23T17:42:10.802Z,13.85
2022-10-23T17:44:38.958Z,13.83
2022-10-23T17:47:07.487Z,13.90
2022-10-23T17:49:35.640Z,13.87
2022-10-23T17:52:03.796Z,13.79
2022-10-23T17:54:33.285Z,13.86
2022-10-23T17:57:01.976Z,13.90
2022-10-23T17:59:30.113Z,13.85
2022-10-23T18:02:00.852Z,13.93
2022-10-23T18:04:29.567Z,13.91
2022-10-23T18:06:57.737Z,13.91
2022-10-23T18:09:25.942Z,13.92
2022-10-23T18:11:55.464Z,14.00
2022-10-23T18:14:26.177Z,13.95
2022-10-23T18:16:56.888Z,13.92
2022-10-23T18:19:25.133Z,13.93
2022-10-23T18:21:53.769Z,13.94
2022-10-23T18:24:22.325Z,13.90
2022-10-23T18:26:50.466Z,13.74
2022-10-23T18:29:21.219Z,13.67
2022-10-23T18:31:49.422Z,13.67
2022-10-23T18:34:19.350Z,13.64
2022-10-23T18:36:48.686Z,13.66
2022-10-23T18:39:22.072Z,13.63
2022-10-23T18:41:53.323Z,13.72
2022-10-23T18:44:24.732Z,13.75
2022-10-23T18:46:52.897Z,13.70
2022-10-23T18:49:21.449Z,13.74
2022-10-23T18:51:50.683Z,13.69
2022-10-23T18:54:21.373Z,13.61
2022-10-23T18:56:49.779Z,13.63
2022-10-23T18:59:20.284Z,13.61
2022-10-23T19:01:50.230Z,13.57
2022-10-23T19:04:18.636Z,13.58
2022-10-23T19:06:47.505Z,13.54
2022-10-23T19:09:15.672Z,13.58
2022-10-23T19:11:45.221Z,13.59
2022-10-23T19:14:13.932Z,13.45
2022-10-23T19:16:47.068Z,13.56
2022-10-23T19:19:20.600Z,13.45
2022-10-23T19:21:50.186Z,13.40
2022-10-23T19:24:24.269Z,13.37
2022-10-23T19:26:52.852Z,13.25
2022-10-23T19:29:24.442Z,13.33
2022-10-23T19:31:52.583Z,13.23
2022-10-23T19:34:24.765Z,13.11
2022-10-23T19:36:54.595Z,13.27
2022-10-23T19:39:23.137Z,13.19
2022-10-23T19:41:51.883Z,13.31
2022-10-23T19:44:21.105Z,13.27
2022-10-23T19:46:49.928Z,13.20
2022-10-23T19:49:18.608Z,13.13
2022-10-23T19:51:51.336Z,13.12
2022-10-23T19:54:20.035Z,13.00
2022-10-23T19:56:48.622Z,12.98
2022-10-23T19:59:16.917Z,12.93
2022-10-23T20:01:48.078Z,12.84
2022-10-23T20:04:18.182Z,12.97
2022-10-23T20:06:48.333Z,12.90
2022-10-23T20:09:16.698Z,13.01
2022-10-23T20:11:45.314Z,12.85
2022-10-23T20:14:13.827Z,12.78
2022-10-23T20:16:44.723Z,12.86
2022-10-23T20:21:45.959Z,12.68
2022-10-23T20:24:17.746Z,12.96
2022-10-23T20:26:48.367Z,12.89
2022-10-23T20:29:17.384Z,12.82
2022-10-23T20:31:45.811Z,12.81
2022-10-23T20:34:14.210Z,12.80
2022-10-23T20:36:46.686Z,12.83
2022-10-23T20:39:19.608Z,12.80
2022-10-23T20:41:48.178Z,12.72
2022-10-23T20:46:50.985Z,12.75
2022-10-23T20:49:21.251Z,12.80
2022-10-23T20:51:54.903Z,12.62
2022-10-23T20:54:25.749Z,12.62
2022-10-23T20:56:54.491Z,12.69
2022-10-23T20:59:22.765Z,12.63
2022-10-23T21:01:53.319Z,12.60
2022-10-23T21:04:25.202Z,12.77
2022-10-23T21:07:09.526Z,12.64
2022-10-23T21:09:40.373Z,12.60
2022-10-23T21:12:09.719Z,12.60
2022-10-23T21:14:37.849Z,12.68
2022-10-23T21:17:06.123Z,12.70
2022-10-23T21:19:34.270Z,12.62
2022-10-23T21:22:02.395Z,12.53
2022-10-23T21:24:30.536Z,12.57
2022-10-23T21:27:00.075Z,12.57
2022-10-23T21:29:28.352Z,12.45
2022-10-23T21:31:58.158Z,12.52
2022-10-23T21:34:27.463Z,12.42
2022-10-23T21:39:45.120Z,12.43
2022-10-23T21:42:15.560Z,12.28
2022-10-23T21:44:44.357Z,12.19
2022-10-23T21:47:12.532Z,12.25
2022-10-23T21:49:40.649Z,12.34
2022-10-23T21:52:09.464Z,12.20
2022-10-23T21:54:37.634Z,12.24
2022-10-23T21:57:05.741Z,12.07
2022-10-23T21:59:36.501Z,12.41
2022-10-23T22:02:04.950Z,12.24
2022-10-23T22:04:33.372Z,12.34
2022-10-23T22:07:02.693Z,12.28
2022-10-23T22:09:31.762Z,12.23
2022-10-23T22:12:00.777Z,12.29
2022-10-23T22:14:29.109Z,12.35
2022-10-23T22:16:58.646Z,12.36
2022-10-23T22:19:26.803Z,12.44
2022-10-23T22:21:54.978Z,12.47
2022-10-23T22:24:23.178Z,12.49
2022-10-23T22:26:53.831Z,12.60
2022-10-23T22:29:24.608Z,12.57
2022-10-23T22:31:53.133Z,12.52
2022-10-23T22:34:34.859Z,12.56
2022-10-23T22:37:13.352Z,12.61
2022-10-23T22:39:41.598Z,12.58
2022-10-23T22:42:09.925Z,12.65
2022-10-23T22:44:38.123Z,12.80
2022-10-23T22:47:06.287Z,12.80
2022-10-23T22:49:35.852Z,12.81
2022-10-23T22:52:04.084Z,12.86
2022-10-23T22:54:32.605Z,12.92
2022-10-23T22:57:00.740Z,12.98
2022-10-23T22:59:28.888Z,13.06
2022-10-23T23:01:57.043Z,13.17
2022-10-23T23:04:37.443Z,13.15
2022-10-23T23:07:08.441Z,13.39
2022-10-23T23:09:38.564Z,13.41
2022-10-23T23:12:07.978Z,13.31
2022-10-23T23:14:36.193Z,13.27
2022-10-23T23:17:04.555Z,13.37
2022-10-23T23:19:32.700Z,13.44
2022-10-23T23:22:01.339Z,13.61
2022-10-23T23:24:32.071Z,13.60
2022-10-23T23:27:00.289Z,13.69
2022-10-23T23:29:29.559Z,13.69
2022-10-23T23:31:57.796Z,13.68
2022-10-23T23:34:25.935Z,13.57
2022-10-23T23:36:54.077Z,13.49
2022-10-23T23:39:22.529Z,13.65
2022-10-23T23:41:51.971Z,13.54
2022-10-23T23:44:20.107Z,13.47
2022-10-23T23:46:48.208Z,13.44
2022-10-23T23:49:16.411Z,13.31
2022-10-23T23:51:44.870Z,13.24
2022-10-23T23:54:13.039Z,13.15
2022-10-23T23:56:41.371Z,13.08
2022-10-23T23:59:10.813Z,12.96
